Time;durP1;ratioP1;P1;durP2;ratioP2;P2;SDS_P1;SDS_P2;PMS_P1;PMS_P2;Temp;Humidity;BMP_temperature;BMP_pressure;BME280_temperature;BME280_humidity;BME280_pressure;Samples;Min_cycle;Max_cycle;Signal;HPM_P1;HPM_P2
2023/09/26 00:02:14;;;;;;;6.97;1.83;;;12.70;99.90;;;;;;4896780;29;20036;-69
2023/09/26 00:04:40;;;;;;;3.63;1.98;;;12.70;99.90;;;;;;4896556;29;20033;-69
2023/09/26 00:07:05;;;;;;;4.22;2.25;;;12.80;99.90;;;;;;4891990;29;20043;-69
2023/09/26 00:09:31;;;;;;;5.22;2.20;;;12.80;99.90;;;;;;4896658;29;20039;-69
2023/09/26 00:11:57;;;;;;;5.03;2.25;;;12.80;99.90;;;;;;4892971;29;20041;-69
2023/09/26 00:14:23;;;;;;;4.30;2.28;;;12.90;99.90;;;;;;4895973;29;20159;-69
2023/09/26 00:16:49;;;;;;;6.18;2.42;;;12.90;99.90;;;;;;4892736;29;20028;-69
2023/09/26 00:19:14;;;;;;;4.20;2.45;;;12.80;99.90;;;;;;4896315;29;20506;-69
2023/09/26 00:21:41;;;;;;;6.63;2.55;;;12.80;99.90;;;;;;4894770;29;20100;-69
2023/09/26 00:24:07;;;;;;;5.57;1.90;;;12.90;99.90;;;;;;4895989;29;20032;-69
2023/09/26 00:26:32;;;;;;;4.15;2.17;;;13.00;99.90;;;;;;4892587;29;20039;-69
2023/09/26 00:28:58;;;;;;;23.17;3.00;;;13.00;99.90;;;;;;4895949;29;20080;-69
2023/09/26 00:31:24;;;;;;;5.57;2.40;;;13.00;99.90;;;;;;4889408;29;20032;-69
2023/09/26 00:33:49;;;;;;;3.78;2.50;;;13.10;99.90;;;;;;4880811;29;20386;-69
2023/09/26 00:36:15;;;;;;;3.50;2.00;;;13.10;99.90;;;;;;4883745;29;20036;-69
2023/09/26 00:38:41;;;;;;;3.85;1.67;;;13.10;99.90;;;;;;4896445;29;20461;-69
2023/09/26 00:41:07;;;;;;;4.82;1.98;;;13.00;99.90;;;;;;4895729;29;20037;-69
2023/09/26 00:43:35;;;;;;;4.55;2.28;;;13.00;99.90;;;;;;4921098;29;20401;-69
2023/09/26 00:46:03;;;;;;;3.70;2.20;;;13.10;99.90;;;;;;4895462;29;20041;-69
2023/09/26 00:48:30;;;;;;;5.85;2.33;;;13.00;99.90;;;;;;4896030;29;20028;-69
2023/09/26 00:50:56;;;;;;;6.28;2.35;;;13.00;99.90;;;;;;4894174;29;20099;-68
2023/09/26 00:53:25;;;;;;;5.13;2.40;;;13.10;99.90;;;;;;4918132;29;20036;-69
2023/09/26 00:55:54;;;;;;;8.20;2.47;;;13.10;99.90;;;;;;4894361;29;20386;-69
2023/09/26 00:58:23;;;;;;;5.40;2.50;;;13.10;99.90;;;;;;4911114;29;20390;-67
2023/09/26 01:00:55;;;;;;;5.18;2.67;;;13.20;99.90;;;;;;4895559;29;20024;-69
2023/09/26 01:03:21;;;;;;;6.05;2.10;;;13.10;99.90;;;;;;4903271;29;20054;-69
2023/09/26 01:05:47;;;;;;;3.38;1.98;;;13.10;99.90;;;;;;4897217;29;20028;-69
2023/09/26 01:08:13;;;;;;;6.07;2.97;;;13.10;99.90;;;;;;4906969;29;20111;-69
2023/09/26 01:10:40;;;;;;;5.85;2.50;;;13.10;99.90;;;;;;4897673;29;20418;-69
2023/09/26 01:13:05;;;;;;;4.43;2.45;;;13.10;99.90;;;;;;4897796;29;20032;-69
2023/09/26 01:15:41;;;;;;;4.50;2.50;;;13.00;99.90;;;;;;4903236;29;20029;-69
2023/09/26 01:18:09;;;;;;;8.00;2.78;;;13.00;99.90;;;;;;4896294;29;20049;-69
2023/09/26 01:20:39;;;;;;;6.82;3.67;;;13.00;99.90;;;;;;4898020;29;20560;-69
2023/09/26 01:23:08;;;;;;;5.05;2.95;;;13.00;99.90;;;;;;4898695;29;20099;-69
2023/09/26 01:25:35;;;;;;;3.55;2.40;;;12.90;99.90;;;;;;4903618;29;20059;-69
2023/09/26 01:28:07;;;;;;;6.45;3.05;;;12.80;99.90;;;;;;4905988;29;20041;-69
2023/09/26 01:30:38;;;;;;;5.18;3.00;;;12.80;99.90;;;;;;4879399;29;20533;-69
2023/09/26 01:33:16;;;;;;;3.22;2.30;;;12.70;99.90;;;;;;4897575;29;20408;-69
2023/09/26 01:35:43;;;;;;;6.22;3.08;;;12.70;99.90;;;;;;4897415;29;20044;-69
2023/09/26 01:38:09;;;;;;;5.03;3.03;;;12.70;99.90;;;;;;4898283;29;20039;-69
2023/09/26 01:40:35;;;;;;;5.93;3.10;;;12.70;99.90;;;;;;4901381;29;20036;-69
2023/09/26 01:43:01;;;;;;;7.20;2.92;;;12.70;99.90;;;;;;4898072;29;20043;-69
2023/09/26 01:45:27;;;;;;;6.72;2.70;;;12.60;99.90;;;;;;4906531;29;20029;-69
2023/09/26 01:47:52;;;;;;;7.90;3.42;;;12.60;99.90;;;;;;4904682;29;20430;-69
2023/09/26 01:50:20;;;;;;;5.78;2.50;;;12.60;99.90;;;;;;4898960;29;20025;-69
2023/09/26 01:52:47;;;;;;;7.45;2.78;;;12.50;99.90;;;;;;4904669;29;20496;-69
2023/09/26 01:55:21;;;;;;;7.25;3.88;;;12.60;99.90;;;;;;4898358;29;20037;-69
2023/09/26 01:57:48;;;;;;;5.35;2.55;;;12.60;99.90;;;;;;4904349;29;20390;-69
2023/09/26 02:00:15;;;;;;;4.80;2.70;;;12.50;99.90;;;;;;4898562;29;20025;-69
2023/09/26 02:02:44;;;;;;;3.55;2.55;;;12.50;99.90;;;;;;4904404;29;20115;-69
2023/09/26 02:05:12;;;;;;;5.15;2.85;;;12.60;99.90;;;;;;4896762;29;20035;-69
2023/09/26 02:07:38;;;;;;;6.03;3.05;;;12.60;99.90;;;;;;4904564;29;20390;-69
2023/09/26 02:10:05;;;;;;;4.72;3.33;;;12.60;99.90;;;;;;4896742;29;20627;-69
2023/09/26 02:12:32;;;;;;;8.07;3.63;;;12.70;99.90;;;;;;4884926;29;20028;-69
2023/09/26 02:15:00;;;;;;;3.53;2.22;;;12.70;99.90;;;;;;4917423;29;20045;-69
2023/09/26 02:17:27;;;;;;;5.70;3.40;;;12.60;99.90;;;;;;4887988;29;20044;-69
2023/09/26 02:19:52;;;;;;;5.15;2.45;;;12.60;99.90;;;;;;4887504;29;20032;-69
2023/09/26 02:22:19;;;;;;;5.72;2.90;;;12.60;99.90;;;;;;4891763;29;20039;-69
2023/09/26 02:24:44;;;;;;;11.13;3.05;;;12.60;99.90;;;;;;4897174;29;20037;-69
2023/09/26 02:27:10;;;;;;;7.85;2.50;;;12.70;99.90;;;;;;4892520;29;20040;-69
2023/09/26 02:29:36;;;;;;;3.63;2.20;;;12.60;99.90;;;;;;4898068;29;20462;-69
2023/09/26 02:32:02;;;;;;;6.35;2.90;;;12.60;99.90;;;;;;4891557;29;20024;-69
2023/09/26 02:34:27;;;;;;;6.53;3.72;;;12.50;99.90;;;;;;4897611;29;20028;-69
2023/09/26 02:36:53;;;;;;;9.00;3.03;;;12.50;99.90;;;;;;4897218;29;20083;-69
2023/09/26 02:39:19;;;;;;;5.03;2.90;;;12.50;99.90;;;;;;4900317;29;20389;-69
2023/09/26 02:41:45;;;;;;;5.32;3.30;;;12.40;99.90;;;;;;4895342;29;20095;-69
2023/09/26 02:44:10;;;;;;;5.18;2.88;;;12.40;99.90;;;;;;4905035;29;20478;-69
2023/09/26 02:46:36;;;;;;;4.78;2.53;;;12.40;99.90;;;;;;4891393;29;20028;-69
2023/09/26 02:49:03;;;;;;;4.38;2.75;;;12.40;99.90;;;;;;4897373;29;20029;-69
2023/09/26 02:51:29;;;;;;;5.28;3.00;;;12.30;99.90;;;;;;4897511;29;20465;-69
2023/09/26 02:53:55;;;;;;;6.43;2.85;;;12.20;99.90;;;;;;4907074;29;20040;-69
2023/09/26 02:56:21;;;;;;;5.18;2.88;;;12.00;99.90;;;;;;4895974;29;20044;-69
2023/09/26 02:58:46;;;;;;;4.97;3.22;;;11.80;99.90;;;;;;4896047;29;20031;-69
2023/09/26 03:01:20;;;;;;;6.20;3.25;;;11.70;99.90;;;;;;4891593;29;20021;-69
2023/09/26 03:03:47;;;;;;;4.85;3.08;;;11.60;99.90;;;;;;4901491;29;20668;-69
2023/09/26 03:06:12;;;;;;;7.00;3.63;;;11.40;99.90;;;;;;4897268;29;20024;-69
2023/09/26 03:08:38;;;;;;;8.10;3.55;;;11.50;99.90;;;;;;4899849;29;20048;-69
2023/09/26 03:11:04;;;;;;;6.72;3.30;;;11.40;99.90;;;;;;4899144;29;20033;-69
2023/09/26 03:13:33;;;;;;;7.45;3.72;;;11.60;99.90;;;;;;4896368;29;20592;-69
2023/09/26 03:15:59;;;;;;;5.78;3.35;;;11.40;99.90;;;;;;4896323;29;20516;-69
2023/09/26 03:18:26;;;;;;;6.43;3.88;;;11.30;99.90;;;;;;4895560;29;20036;-69
2023/09/26 03:20:56;;;;;;;13.38;4.00;;;11.30;99.90;;;;;;4899953;29;20041;-69
2023/09/26 03:23:22;;;;;;;4.35;2.63;;;11.30;99.90;;;;;;4895357;29;20099;-69
2023/09/26 03:25:48;;;;;;;4.25;2.80;;;11.20;99.90;;;;;;4893465;29;20033;-69
2023/09/26 03:28:14;;;;;;;5.85;2.90;;;11.40;99.90;;;;;;4899077;29;20237;-69
2023/09/26 03:30:41;;;;;;;5.45;3.47;;;11.40;99.90;;;;;;4895735;29;20398;-69
2023/09/26 03:33:08;;;;;;;6.63;2.97;;;11.40;99.90;;;;;;4895500;29;20038;-69
2023/09/26 03:35:33;;;;;;;6.55;3.58;;;11.40;99.90;;;;;;4892477;29;20025;-69
2023/09/26 03:37:59;;;;;;;6.88;3.65;;;11.50;99.90;;;;;;4897423;29;20183;-68
2023/09/26 03:40:25;;;;;;;8.43;3.78;;;11.50;99.90;;;;;;4892412;29;20065;-68
2023/09/26 03:42:52;;;;;;;5.97;3.40;;;11.40;99.90;;;;;;4894702;29;20032;-69
2023/09/26 03:45:18;;;;;;;7.32;2.92;;;11.50;99.90;;;;;;4893649;29;20044;-69
2023/09/26 03:47:43;;;;;;;5.75;3.30;;;11.50;99.90;;;;;;4899774;29;20469;-68
2023/09/26 03:50:09;;;;;;;6.95;2.80;;;11.50;99.90;;;;;;4895278;29;20084;-68
2023/09/26 03:52:35;;;;;;;10.38;2.83;;;11.50;99.90;;;;;;4891419;29;20033;-69
2023/09/26 03:55:02;;;;;;;4.50;2.90;;;11.50;99.90;;;;;;4895001;29;20549;-68
2023/09/26 03:57:31;;;;;;;4.50;2.83;;;11.50;99.90;;;;;;4895656;29;20481;-69
2023/09/26 03:59:57;;;;;;;6.53;3.30;;;11.50;99.90;;;;;;4896564;29;20040;-69
2023/09/26 04:02:23;;;;;;;6.13;2.92;;;11.40;99.90;;;;;;4898919;29;20032;-69
2023/09/26 04:04:48;;;;;;;5.47;3.33;;;11.40;99.90;;;;;;4898620;29;20033;-68
2023/09/26 04:07:14;;;;;;;8.85;3.33;;;11.20;99.90;;;;;;4912083;23;20108;-67
2023/09/26 04:09:40;;;;;;;12.80;3.47;;;11.10;99.90;;;;;;4894273;29;20119;-68
2023/09/26 04:12:06;;;;;;;9.82;3.22;;;11.10;99.90;;;;;;4889769;29;20043;-68
2023/09/26 04:14:32;;;;;;;6.22;3.83;;;11.00;99.90;;;;;;4885217;29;20030;-67
2023/09/26 04:16:58;;;;;;;6.88;3.50;;;11.00;99.90;;;;;;4874036;29;20494;-68
2023/09/26 04:19:24;;;;;;;6.00;3.42;;;11.00;99.90;;;;;;4875821;29;20029;-68
2023/09/26 04:21:53;;;;;;;4.90;2.72;;;11.00;99.90;;;;;;4871033;29;20048;-69
2023/09/26 04:24:19;;;;;;;8.02;3.78;;;10.90;99.90;;;;;;4875283;29;20033;-68
2023/09/26 04:26:46;;;;;;;7.95;4.20;;;10.90;99.90;;;;;;4871780;29;20041;-67
2023/09/26 04:29:13;;;;;;;7.75;3.90;;;11.00;99.90;;;;;;4877036;29;20021;-68
2023/09/26 04:31:39;;;;;;;11.38;4.07;;;10.90;99.90;;;;;;4871325;29;20471;-67
2023/09/26 04:34:05;;;;;;;8.02;4.18;;;10.90;99.90;;;;;;4859064;29;20047;-67
2023/09/26 04:36:31;;;;;;;68.93;30.00;;;11.00;99.90;;;;;;4871094;29;20031;-68
2023/09/26 04:38:56;;;;;;;11.68;5.88;;;11.20;99.90;;;;;;4876623;29;20037;-68
2023/09/26 04:41:22;;;;;;;6.80;3.83;;;11.20;99.90;;;;;;4871270;29;20125;-68
2023/09/26 04:43:48;;;;;;;5.60;3.85;;;11.10;99.90;;;;;;4876485;29;20044;-68
2023/09/26 04:46:15;;;;;;;12.50;3.65;;;11.00;99.90;;;;;;4875106;29;20032;-67
2023/09/26 04:48:43;;;;;;;10.65;4.28;;;10.70;99.90;;;;;;4876933;29;20029;-68
2023/09/26 04:51:13;;;;;;;6.28;3.92;;;10.50;99.90;;;;;;4872467;29;20095;-68
2023/09/26 04:53:39;;;;;;;6.75;3.65;;;10.50;99.90;;;;;;4883183;29;20029;-68
2023/09/26 04:56:06;;;;;;;7.38;4.45;;;10.60;99.90;;;;;;4874435;29;20034;-67
2023/09/26 04:58:32;;;;;;;4.68;3.47;;;10.40;99.90;;;;;;4879369;29;20033;-68
2023/09/26 05:01:03;;;;;;;5.97;3.20;;;10.30;99.90;;;;;;4874312;29;20097;-68
2023/09/26 05:03:29;;;;;;;3.80;2.93;;;10.30;99.90;;;;;;4879041;29;20401;-67
2023/09/26 05:05:54;;;;;;;8.70;3.72;;;10.40;99.90;;;;;;4879038;29;20040;-68
2023/09/26 05:08:20;;;;;;;6.03;3.53;;;10.40;99.90;;;;;;4878880;29;20043;-69
2023/09/26 05:10:48;;;;;;;22.02;9.70;;;10.50;99.90;;;;;;4882481;29;20046;-69
2023/09/26 05:13:15;;;;;;;18.42;7.63;;;10.60;99.90;;;;;;4881907;29;20037;-69
2023/09/26 05:15:41;;;;;;;8.63;4.18;;;10.60;99.90;;;;;;4879515;29;20033;-68
2023/09/26 05:18:07;;;;;;;13.55;6.20;;;10.80;99.90;;;;;;4881391;29;20043;-68
2023/09/26 05:20:32;;;;;;;10.48;4.88;;;10.80;99.90;;;;;;4893576;29;20112;-71
2023/09/26 05:23:00;;;;;;;9.80;4.80;;;10.90;99.90;;;;;;4882182;29;20038;-71
2023/09/26 05:25:27;;;;;;;9.10;4.57;;;11.00;99.90;;;;;;4882478;29;20028;-70
2023/09/26 05:27:52;;;;;;;9.70;5.25;;;11.00;99.90;;;;;;4881598;29;20049;-71
2023/09/26 05:30:18;;;;;;;11.80;4.57;;;10.80;99.90;;;;;;4882548;29;20024;-71
2023/09/26 05:32:44;;;;;;;10.68;4.93;;;10.80;99.90;;;;;;4876108;29;20033;-70
2023/09/26 05:35:11;;;;;;;9.15;5.07;;;10.80;99.90;;;;;;4884569;29;20040;-71
2023/09/26 05:37:37;;;;;;;8.93;5.10;;;10.90;99.90;;;;;;4875913;29;20497;-71
2023/09/26 05:40:06;;;;;;;10.20;3.70;;;10.90;99.90;;;;;;4889469;29;20049;-71
2023/09/26 05:42:34;;;;;;;9.10;3.97;;;11.00;99.90;;;;;;4881090;29;20083;-71
2023/09/26 05:45:00;;;;;;;8.52;4.82;;;11.00;99.90;;;;;;4879967;29;20033;-70
2023/09/26 05:47:25;;;;;;;7.55;3.85;;;11.10;99.90;;;;;;4871858;29;20041;-71
2023/09/26 05:49:51;;;;;;;9.10;4.20;;;11.00;99.90;;;;;;4838401;29;20041;-72
2023/09/26 05:52:20;;;;;;;12.18;4.90;;;10.80;99.90;;;;;;4876024;29;20442;-72
2023/09/26 05:54:47;;;;;;;8.07;4.00;;;10.70;99.90;;;;;;4887533;29;20037;-71
2023/09/26 05:57:14;;;;;;;11.13;3.00;;;10.60;99.90;;;;;;4892123;29;20112;-71
2023/09/26 05:59:40;;;;;;;8.68;4.07;;;10.60;99.90;;;;;;4880146;29;20132;-71
2023/09/26 06:02:13;;;;;;;8.80;4.53;;;10.70;99.90;;;;;;4876573;29;20185;-71
2023/09/26 06:04:43;;;;;;;24.02;5.18;;;10.80;99.90;;;;;;4881276;29;20097;-70
2023/09/26 06:07:09;;;;;;;12.15;4.13;;;10.90;99.90;;;;;;4871323;29;20048;-68
2023/09/26 06:09:36;;;;;;;7.18;5.03;;;11.10;99.90;;;;;;4876996;29;20440;-71
2023/09/26 06:12:06;;;;;;;8.07;4.88;;;11.20;99.90;;;;;;4881799;29;20024;-70
2023/09/26 06:14:33;;;;;;;11.32;4.68;;;11.20;99.90;;;;;;4878283;29;20025;-70
2023/09/26 06:16:59;;;;;;;6.88;3.88;;;11.30;99.90;;;;;;4892925;29;20059;-70
2023/09/26 06:19:24;;;;;;;8.15;4.07;;;11.30;99.90;;;;;;4877637;29;20769;-70
2023/09/26 06:21:50;;;;;;;5.70;3.97;;;11.40;99.90;;;;;;4877142;29;20045;-71
2023/09/26 06:24:16;;;;;;;8.93;4.10;;;11.50;99.90;;;;;;4885135;29;20474;-71
2023/09/26 06:26:42;;;;;;;11.15;4.05;;;11.60;99.90;;;;;;4875988;29;20124;-71
2023/09/26 06:29:07;;;;;;;8.57;4.50;;;11.70;99.90;;;;;;4877986;29;20112;-71
2023/09/26 06:31:33;;;;;;;9.73;4.85;;;11.70;99.90;;;;;;4875680;29;20025;-71
2023/09/26 06:34:01;;;;;;;7.00;4.18;;;11.80;99.90;;;;;;4877072;29;20037;-71
2023/09/26 06:36:31;;;;;;;12.52;4.45;;;11.80;99.90;;;;;;4877599;29;20029;-71
2023/09/26 06:38:57;;;;;;;6.95;3.85;;;11.90;99.90;;;;;;4878527;29;20456;-71
2023/09/26 06:41:24;;;;;;;8.73;4.55;;;12.00;99.90;;;;;;4876236;29;20382;-70
2023/09/26 06:43:50;;;;;;;8.82;5.15;;;12.10;99.90;;;;;;4866481;29;20033;-70
2023/09/26 06:46:16;;;;;;;11.13;5.63;;;12.10;99.90;;;;;;4876140;29;20041;-70
2023/09/26 06:48:42;;;;;;;8.93;5.25;;;12.10;99.90;;;;;;4877527;29;20072;-71
2023/09/26 06:51:08;;;;;;;7.63;3.97;;;12.20;99.90;;;;;;4875445;29;20057;-71
2023/09/26 06:53:35;;;;;;;11.50;5.10;;;12.30;99.90;;;;;;4878841;29;20425;-73
2023/09/26 06:56:07;;;;;;;10.50;4.85;;;12.30;99.90;;;;;;4877119;29;20045;-70
2023/09/26 06:58:35;;;;;;;10.90;5.03;;;12.30;99.90;;;;;;4879116;29;20033;-72
2023/09/26 07:01:01;;;;;;;10.13;4.85;;;12.40;99.90;;;;;;4874615;29;20048;-71
2023/09/26 07:03:27;;;;;;;7.22;3.95;;;12.40;99.90;;;;;;4875468;29;20025;-71
2023/09/26 07:05:54;;;;;;;8.50;5.03;;;12.50;99.90;;;;;;4873766;29;20513;-71
2023/09/26 07:08:20;;;;;;;7.95;4.40;;;12.60;99.90;;;;;;4877204;29;20116;-71
2023/09/26 07:10:46;;;;;;;10.40;4.80;;;12.60;99.90;;;;;;4864749;29;20549;-71
2023/09/26 07:13:13;;;;;;;8.88;4.82;;;12.70;99.90;;;;;;4877333;29;20021;-71
2023/09/26 07:15:42;;;;;;;7.63;4.82;;;12.70;99.90;;;;;;4874831;29;20025;-71
2023/09/26 07:18:10;;;;;;;6.68;3.97;;;12.80;99.90;;;;;;4877976;29;20395;-71
2023/09/26 07:20:47;;;;;;;7.78;4.45;;;12.80;99.90;;;;;;4876698;29;20462;-71
2023/09/26 07:23:15;;;;;;;7.35;4.05;;;13.00;99.90;;;;;;4892008;29;20715;-71
2023/09/26 07:25:41;;;;;;;8.55;5.22;;;12.90;99.90;;;;;;4876812;29;20033;-71
2023/09/26 07:28:07;;;;;;;11.63;5.25;;;13.10;99.90;;;;;;4875750;29;20029;-71
2023/09/26 07:30:33;;;;;;;10.52;4.55;;;13.20;99.90;;;;;;4875032;29;20522;-70
2023/09/26 07:32:58;;;;;;;7.10;4.63;;;13.20;99.90;;;;;;4877389;29;20117;-71
2023/09/26 07:35:25;;;;;;;8.95;3.97;;;13.30;99.90;;;;;;4873127;29;20123;-71
2023/09/26 07:37:51;;;;;;;8.95;4.35;;;13.30;99.90;;;;;;4877696;29;20076;-71
2023/09/26 07:40:17;;;;;;;16.30;5.35;;;13.40;99.90;;;;;;4858804;29;20032;-71
2023/09/26 07:42:43;;;;;;;17.75;5.03;;;13.50;99.90;;;;;;4877915;29;20052;-70
2023/09/26 07:45:09;;;;;;;9.02;4.57;;;13.50;99.90;;;;;;4874825;29;20041;-71
2023/09/26 07:47:35;;;;;;;7.90;4.20;;;13.70;99.90;;;;;;4878636;29;20085;-76
2023/09/26 07:50:01;;;;;;;10.30;5.40;;;13.80;99.90;;;;;;4876360;29;20045;-74
2023/09/26 07:52:27;;;;;;;8.15;5.00;;;13.90;99.90;;;;;;4878977;29;20048;-71
2023/09/26 07:54:53;;;;;;;13.68;5.38;;;14.00;99.90;;;;;;4874050;29;20482;-71
2023/09/26 07:57:20;;;;;;;11.20;5.05;;;14.00;99.90;;;;;;4878536;29;20036;-71
2023/09/26 07:59:47;;;;;;;8.48;5.22;;;14.10;99.90;;;;;;4869741;29;20530;-71
2023/09/26 08:02:12;;;;;;;8.85;5.30;;;14.20;99.90;;;;;;4888512;29;20040;-70
2023/09/26 08:04:38;;;;;;;15.05;6.20;;;14.20;99.90;;;;;;4865467;29;20037;-72
2023/09/26 08:07:04;;;;;;;13.00;5.28;;;14.20;99.90;;;;;;4883431;29;20060;-71
2023/09/26 08:09:31;;;;;;;15.93;5.70;;;14.20;99.90;;;;;;4876014;29;20088;-72
2023/09/26 08:11:58;;;;;;;8.10;4.75;;;14.30;99.90;;;;;;4879796;29;20081;-71
2023/09/26 08:14:24;;;;;;;13.80;5.65;;;14.40;99.90;;;;;;4877883;29;20025;-71
2023/09/26 08:16:50;;;;;;;12.55;5.57;;;14.60;99.90;;;;;;4876176;29;20096;-69
2023/09/26 08:19:16;;;;;;;13.30;5.47;;;14.60;99.90;;;;;;4877416;29;20119;-69
2023/09/26 08:21:43;;;;;;;9.45;5.78;;;14.80;99.90;;;;;;4876023;29;20033;-70
2023/09/26 08:24:09;;;;;;;18.30;6.22;;;14.90;99.90;;;;;;4875806;29;20040;-70
2023/09/26 08:26:34;;;;;;;12.48;5.78;;;15.00;99.90;;;;;;4874414;29;20450;-70
2023/09/26 08:29:00;;;;;;;11.73;4.93;;;15.00;99.90;;;;;;4880100;29;20055;-69
2023/09/26 08:31:26;;;;;;;9.90;5.90;;;15.20;99.90;;;;;;4878292;29;20392;-70
2023/09/26 08:33:53;;;;;;;10.82;5.78;;;15.30;99.90;;;;;;4880865;29;20648;-70
2023/09/26 08:36:20;;;;;;;11.30;5.97;;;15.30;99.90;;;;;;4877413;29;20048;-69
2023/09/26 08:38:49;;;;;;;11.05;5.03;;;15.50;99.90;;;;;;4880954;29;20044;-70
2023/09/26 08:41:17;;;;;;;12.63;5.28;;;15.60;99.90;;;;;;4879212;29;20482;-69
2023/09/26 08:43:44;;;;;;;9.95;5.28;;;15.70;99.90;;;;;;4879338;29;20084;-69
2023/09/26 08:46:10;;;;;;;11.50;5.45;;;15.80;99.90;;;;;;4877699;29;20041;-69
2023/09/26 08:48:37;;;;;;;9.30;4.85;;;15.90;99.90;;;;;;4882296;29;20105;-69
2023/09/26 08:51:03;;;;;;;9.93;4.70;;;16.00;99.90;;;;;;4887832;29;20033;-69
2023/09/26 08:53:30;;;;;;;12.10;4.95;;;16.10;99.90;;;;;;4886750;29;20033;-69
2023/09/26 08:55:55;;;;;;;9.45;4.60;;;16.30;99.90;;;;;;4879061;29;20124;-69
2023/09/26 08:58:24;;;;;;;8.00;4.60;;;16.50;99.90;;;;;;4880749;29;20413;-69
2023/09/26 09:00:50;;;;;;;11.32;4.65;;;16.70;99.90;;;;;;4879098;29;20170;-69
2023/09/26 09:03:16;;;;;;;8.25;4.93;;;16.70;99.90;;;;;;4879843;29;20029;-69
2023/09/26 09:05:43;;;;;;;8.20;4.45;;;16.70;99.90;;;;;;4878681;29;20033;-69
2023/09/26 09:08:15;;;;;;;9.15;4.97;;;16.90;99.90;;;;;;4878867;29;20064;-69
2023/09/26 09:10:55;;;;;;;10.35;4.80;;;17.00;99.90;;;;;;4883753;29;20033;-69
2023/09/26 09:13:30;;;;;;;6.90;4.57;;;16.90;99.90;;;;;;4872739;29;20447;-70
2023/09/26 09:16:10;;;;;;;12.07;4.80;;;16.90;99.90;;;;;;4877018;29;20124;-69
2023/09/26 09:18:38;;;;;;;6.28;4.13;;;17.10;99.90;;;;;;4884590;29;20024;-69
2023/09/26 09:21:24;;;;;;;11.50;4.85;;;17.20;99.90;;;;;;4878818;29;20057;-69
2023/09/26 09:23:52;;;;;;;12.27;4.55;;;17.30;99.90;;;;;;4878676;29;20047;-70
2023/09/26 09:26:19;;;;;;;6.90;3.90;;;17.50;99.90;;;;;;4883776;29;20133;-69
2023/09/26 09:28:46;;;;;;;11.18;4.63;;;17.70;99.90;;;;;;4879858;29;20386;-70
2023/09/26 09:31:15;;;;;;;9.80;4.07;;;17.80;99.90;;;;;;4876810;29;20112;-69
2023/09/26 09:33:45;;;;;;;9.68;4.28;;;17.80;99.90;;;;;;4879249;29;20029;-69
2023/09/26 09:36:12;;;;;;;7.68;4.28;;;18.00;99.90;;;;;;4876654;29;20090;-69
2023/09/26 09:38:39;;;;;;;6.57;3.65;;;18.10;99.90;;;;;;4878664;29;20100;-69
2023/09/26 09:41:09;;;;;;;8.95;4.20;;;18.30;99.90;;;;;;4876234;29;20041;-70
2023/09/26 09:43:36;;;;;;;7.10;4.32;;;18.50;99.90;;;;;;4878260;29;20804;-70
2023/09/26 09:46:10;;;;;;;7.05;3.97;;;18.60;99.90;;;;;;4885576;29;20115;-70
2023/09/26 09:48:46;;;;;;;5.10;3.40;;;18.80;99.90;;;;;;4878306;29;20112;-70
2023/09/26 09:51:15;;;;;;;8.10;4.25;;;19.00;99.90;;;;;;4876371;29;20048;-70
2023/09/26 09:53:54;;;;;;;8.27;4.28;;;19.10;99.90;;;;;;4879097;29;20049;-70
2023/09/26 09:56:24;;;;;;;7.88;3.45;;;19.20;99.90;;;;;;4872428;29;20047;-70
2023/09/26 09:59:02;;;;;;;9.27;4.05;;;19.30;99.90;;;;;;4879409;29;20762;-70
2023/09/26 10:01:29;;;;;;;6.18;3.35;;;19.60;99.90;;;;;;4877774;29;20120;-70
2023/09/26 10:03:56;;;;;;;6.00;4.03;;;19.50;99.90;;;;;;4877649;29;20060;-70
2023/09/26 10:06:21;;;;;;;6.35;3.58;;;19.50;99.90;;;;;;4878150;29;20040;-70
2023/09/26 10:08:49;;;;;;;12.90;3.95;;;19.40;99.90;;;;;;4879743;29;20029;-69
2023/09/26 10:11:16;;;;;;;7.05;3.70;;;19.60;99.90;;;;;;4883824;29;20033;-70
2023/09/26 10:13:42;;;;;;;12.68;5.13;;;20.00;99.90;;;;;;4877703;29;20104;-71
2023/09/26 10:16:17;;;;;;;6.13;3.42;;;20.00;99.90;;;;;;4875563;29;20112;-69
2023/09/26 10:18:47;;;;;;;7.32;3.30;;;20.30;99.90;;;;;;4877745;29;20025;-69
2023/09/26 10:21:28;;;;;;;8.43;2.97;;;20.30;99.90;;;;;;4875598;29;20048;-69
2023/09/26 10:24:05;;;;;;;;;;;20.40;99.90;;;;;;4877788;29;20031;-69
2023/09/26 10:26:43;;;;;;;5.45;3.13;;;20.50;99.90;;;;;;4876013;29;19922;-69
2023/09/26 10:29:22;;;;;;;5.03;3.08;;;20.30;99.90;;;;;;4877439;29;20033;-69
2023/09/26 10:32:04;;;;;;;9.50;3.55;;;20.50;99.90;;;;;;4875723;29;20100;-69
2023/09/26 10:34:35;;;;;;;6.18;2.95;;;20.90;99.90;;;;;;4878145;29;20047;-69
2023/09/26 10:37:03;;;;;;;6.30;2.92;;;20.70;99.90;;;;;;4890440;29;20512;-69
2023/09/26 10:39:39;;;;;;;7.00;3.28;;;20.50;99.90;;;;;;4878790;29;20037;-70
2023/09/26 10:42:12;;;;;;;5.55;3.17;;;21.00;99.90;;;;;;4877092;29;20565;-70
2023/09/26 10:44:40;;;;;;;6.00;3.13;;;21.40;99.90;;;;;;4877043;29;20088;-70
2023/09/26 10:47:06;;;;;;;9.40;3.17;;;21.20;99.90;;;;;;4891279;29;20064;-70
2023/09/26 10:49:32;;;;;;;5.88;2.97;;;21.40;99.90;;;;;;4876639;29;20029;-70
2023/09/26 10:52:02;;;;;;;5.38;3.47;;;21.50;99.90;;;;;;4889974;29;20414;-70
2023/09/26 10:54:32;;;;;;;9.48;3.47;;;21.80;99.90;;;;;;4878123;29;20036;-70
2023/09/26 10:56:59;;;;;;;9.87;3.17;;;22.20;99.90;;;;;;4876537;29;20051;-70
2023/09/26 10:59:29;;;;;;;6.55;3.03;;;22.00;99.90;;;;;;4877001;29;20349;-70
2023/09/26 11:01:58;;;;;;;5.25;2.92;;;22.20;99.90;;;;;;4876962;29;20460;-70
2023/09/26 11:04:28;;;;;;;7.68;3.22;;;22.20;99.90;;;;;;4876796;29;20131;-70
2023/09/26 11:06:56;;;;;;;10.45;3.00;;;22.30;99.90;;;;;;4875613;29;20057;-69
2023/09/26 11:09:22;;;;;;;5.53;2.83;;;22.70;99.90;;;;;;4878380;29;20025;-70
2023/09/26 11:11:48;;;;;;;4.55;2.67;;;22.90;99.90;;;;;;4881344;29;20096;-70
2023/09/26 11:14:15;;;;;;;4.88;2.70;;;22.80;99.90;;;;;;4876181;29;20463;-69
2023/09/26 11:16:41;;;;;;;3.15;2.03;;;23.30;99.90;;;;;;4876556;29;20156;-70
2023/09/26 11:19:10;;;;;;;3.88;2.30;;;23.30;99.90;;;;;;4877911;29;20029;-70
2023/09/26 11:21:36;;;;;;;3.90;1.95;;;23.60;99.90;;;;;;4876466;29;20040;-70
2023/09/26 11:24:23;;;;;;;3.10;1.70;;;23.80;99.90;;;;;;4877633;29;20649;-70
2023/09/26 11:26:52;;;;;;;4.50;2.45;;;23.50;99.90;;;;;;4876266;29;20025;-70
2023/09/26 11:29:19;;;;;;;2.85;1.65;;;23.10;99.90;;;;;;4869195;29;20041;-70
2023/09/26 11:31:45;;;;;;;6.38;2.40;;;23.80;99.90;;;;;;4874841;29;20064;-70
2023/09/26 11:34:11;;;;;;;5.63;2.40;;;23.50;99.90;;;;;;4877175;29;20143;-70
2023/09/26 11:36:40;;;;;;;8.65;2.17;;;24.20;99.90;;;;;;4882513;29;20719;-70
2023/09/26 11:39:08;;;;;;;4.78;2.53;;;24.30;99.00;;;;;;4885398;29;20029;-70
2023/09/26 11:41:34;;;;;;;1.88;1.20;;;25.50;96.90;;;;;;4876500;29;20120;-70
2023/09/26 11:44:17;;;;;;;3.50;1.42;;;25.30;97.40;;;;;;4878957;29;20112;-70
2023/09/26 11:46:47;;;;;;;1.70;1.00;;;26.30;95.40;;;;;;4881654;29;20025;-70
2023/09/26 11:49:16;;;;;;;2.60;1.23;;;26.30;96.30;;;;;;4877075;29;20124;-69
2023/09/26 11:51:43;;;;;;;2.90;1.40;;;25.70;94.20;;;;;;4874166;29;20568;-70
2023/09/26 11:54:10;;;;;;;2.97;1.40;;;26.30;93.50;;;;;;4877318;29;20025;-69
2023/09/26 11:56:37;;;;;;;2.72;1.45;;;25.60;94.70;;;;;;4876147;29;20037;-70
2023/09/26 11:59:06;;;;;;;4.28;1.63;;;26.30;93.10;;;;;;4876226;29;20055;-70
2023/09/26 12:01:33;;;;;;;2.25;1.17;;;26.10;93.50;;;;;;4875374;29;20094;-70
2023/09/26 12:04:07;;;;;;;2.55;1.10;;;27.20;90.90;;;;;;4875665;29;20059;-68
2023/09/26 12:06:36;;;;;;;2.17;1.15;;;27.60;87.40;;;;;;4875600;29;20041;-70
2023/09/26 12:09:05;;;;;;;5.22;2.03;;;28.10;90.00;;;;;;4877048;29;20041;-70
2023/09/26 12:11:31;;;;;;;3.03;1.30;;;28.10;86.60;;;;;;4882131;29;20435;-70
2023/09/26 12:13:57;;;;;;;1.75;1.00;;;29.40;83.30;;;;;;4875314;29;20033;-70
2023/09/26 12:16:23;;;;;;;1.50;0.88;;;31.40;72.70;;;;;;4875652;29;20073;-70
2023/09/26 12:18:49;;;;;;;4.30;1.20;;;30.50;73.90;;;;;;4877542;29;20155;-69
2023/09/26 12:21:16;;;;;;;5.47;1.92;;;29.90;74.50;;;;;;4867231;29;20041;-70
2023/09/26 12:23:41;;;;;;;1.88;1.02;;;30.70;70.40;;;;;;4860081;29;20029;-70
2023/09/26 12:26:07;;;;;;;2.38;1.08;;;29.40;71.20;;;;;;4871715;29;20033;-69
2023/09/26 12:28:35;;;;;;;2.08;1.05;;;29.30;74.10;;;;;;4877076;29;20028;-69
2023/09/26 12:31:00;;;;;;;2.45;1.42;;;27.50;77.90;;;;;;4871541;29;20033;-69
2023/09/26 12:33:26;;;;;;;2.70;1.60;;;26.70;84.00;;;;;;4876835;29;20029;-69
2023/09/26 12:35:52;;;;;;;2.33;1.13;;;28.60;80.90;;;;;;4871828;29;20060;-70
2023/09/26 12:38:18;;;;;;;1.67;0.98;;;28.00;82.20;;;;;;4876744;29;20021;-70
2023/09/26 12:40:43;;;;;;;1.98;1.13;;;27.70;81.40;;;;;;4872488;29;20398;-69
2023/09/26 12:43:09;;;;;;;1.50;0.85;;;27.70;79.70;;;;;;4875665;29;20037;-69
2023/09/26 12:45:35;;;;;;;5.65;0.90;;;27.90;79.90;;;;;;4873895;29;20120;-69
2023/09/26 12:48:01;;;;;;;2.25;1.00;;;27.50;80.70;;;;;;4874511;29;20037;-69